createdAt,value
2018-12-27T00:01:07.493Z,26.10
2018-12-27T00:03:09.328Z,24.15
2018-12-27T00:05:11.065Z,26.07
2018-12-27T00:07:12.778Z,27.58
2018-12-27T00:09:14.507Z,25.57
2018-12-27T00:11:16.230Z,29.60
2018-12-27T00:13:17.944Z,25.10
2018-12-27T00:15:19.675Z,26.30
2018-12-27T00:17:21.446Z,24.80
2018-12-27T00:19:23.567Z,25.62
2018-12-27T00:21:25.346Z,26.60
2018-12-27T00:23:27.250Z,25.60
2018-12-27T00:25:28.961Z,26.30
2018-12-27T00:27:30.677Z,28.90
2018-12-27T00:29:32.677Z,25.23
2018-12-27T00:31:34.405Z,23.92
2018-12-27T00:33:36.312Z,26.05
2018-12-27T00:35:38.055Z,27.48
2018-12-27T00:37:39.771Z,27.45
2018-12-27T00:39:41.477Z,28.00
2018-12-27T00:41:43.242Z,28.83
2018-12-27T00:43:44.997Z,29.70
2018-12-27T00:45:46.710Z,29.30
2018-12-27T00:47:48.538Z,31.62
2018-12-27T00:49:50.257Z,27.75
2018-12-27T00:51:51.946Z,30.08
2018-12-27T00:53:53.681Z,31.35
2018-12-27T00:55:55.405Z,25.97
2018-12-27T00:57:57.120Z,31.10
2018-12-27T00:59:58.913Z,31.40
2018-12-27T01:02:00.667Z,30.05
2018-12-27T01:04:02.388Z,32.78
2018-12-27T01:06:04.107Z,32.15
2018-12-27T01:08:11.715Z,34.40
2018-12-27T01:10:13.421Z,30.00
2018-12-27T01:12:15.146Z,29.27
2018-12-27T01:14:17.478Z,29.15
2018-12-27T01:16:19.293Z,31.33
2018-12-27T01:18:21.030Z,32.33
2018-12-27T01:20:22.741Z,30.77
2018-12-27T01:22:24.517Z,30.60
2018-12-27T01:24:26.253Z,27.70
2018-12-27T01:26:27.980Z,31.73
2018-12-27T01:28:29.689Z,29.12
2018-12-27T01:30:31.637Z,29.60
2018-12-27T01:32:33.357Z,30.20
2018-12-27T01:34:35.085Z,27.15
2018-12-27T01:36:37.091Z,29.48
2018-12-27T01:38:38.798Z,25.30
2018-12-27T01:40:40.505Z,30.70
2018-12-27T01:42:42.237Z,27.02
2018-12-27T01:44:43.949Z,28.67
2018-12-27T01:46:45.665Z,29.48
2018-12-27T01:48:47.561Z,25.43
2018-12-27T01:50:49.273Z,27.93
2018-12-27T01:52:50.994Z,26.75
2018-12-27T01:54:52.715Z,24.65
2018-12-27T01:56:54.434Z,25.95
2018-12-27T01:58:56.157Z,27.37
2018-12-27T02:00:57.877Z,25.60
2018-12-27T02:02:59.917Z,23.50
2018-12-27T02:05:01.630Z,23.65
2018-12-27T02:07:03.337Z,27.22
2018-12-27T02:09:07.433Z,25.57
2018-12-27T02:11:09.201Z,24.63
2018-12-27T02:13:10.950Z,23.65
2018-12-27T02:15:12.685Z,28.35
2018-12-27T02:17:14.456Z,25.88
2018-12-27T02:19:16.354Z,23.02
2018-12-27T02:21:18.381Z,28.40
2018-12-27T02:23:20.101Z,23.62
2018-12-27T02:25:21.813Z,25.43
2018-12-27T02:27:23.540Z,26.00
2018-12-27T02:29:25.253Z,26.17
2018-12-27T02:31:26.973Z,22.15
2018-12-27T02:33:35.178Z,25.12
2018-12-27T02:35:32.489Z,25.92
2018-12-27T02:37:34.209Z,22.75
2018-12-27T02:39:36.062Z,25.88
2018-12-27T02:41:37.791Z,23.25
2018-12-27T02:43:39.495Z,28.10
2018-12-27T02:45:41.622Z,26.20
2018-12-27T02:47:43.333Z,26.07
2018-12-27T02:49:45.061Z,24.10
2018-12-27T02:51:46.926Z,24.35
2018-12-27T02:53:48.761Z,27.15
2018-12-27T02:55:50.483Z,27.37
2018-12-27T02:57:52.189Z,23.62
2018-12-27T02:59:53.901Z,24.80
2018-12-27T03:01:55.805Z,23.20
2018-12-27T03:03:57.522Z,22.27
2018-12-27T03:05:59.238Z,25.23
2018-12-27T03:08:01.185Z,23.18
2018-12-27T03:10:02.933Z,26.52
2018-12-27T03:12:04.764Z,24.23
2018-12-27T03:14:06.597Z,25.65
2018-12-27T03:16:08.309Z,19.60
2018-12-27T03:18:10.039Z,25.50
2018-12-27T03:20:11.767Z,24.70
2018-12-27T03:22:13.502Z,24.52
2018-12-27T03:24:15.315Z,25.25
2018-12-27T03:26:17.029Z,24.05
2018-12-27T03:28:18.998Z,23.87
2018-12-27T03:30:20.728Z,23.07
2018-12-27T03:32:22.511Z,24.87
2018-12-27T03:34:24.263Z,25.00
2018-12-27T03:36:25.974Z,24.67
2018-12-27T03:38:27.686Z,21.97
2018-12-27T03:40:29.481Z,23.07
2018-12-27T03:42:31.205Z,22.98
2018-12-27T03:44:32.938Z,23.18
2018-12-27T03:46:34.822Z,22.25
2018-12-27T03:48:36.541Z,25.17
2018-12-27T03:50:38.241Z,23.90
2018-12-27T03:52:40.411Z,21.42
2018-12-27T03:54:42.119Z,21.02
2018-12-27T03:56:43.830Z,23.65
2018-12-27T03:58:45.548Z,20.92
2018-12-27T04:00:47.302Z,22.70
2018-12-27T04:02:49.004Z,21.62
2018-12-27T04:04:50.715Z,21.30
2018-12-27T04:06:52.470Z,24.70
2018-12-27T04:08:54.199Z,24.35
2018-12-27T04:10:55.913Z,22.20
2018-12-27T04:12:57.686Z,21.07
2018-12-27T04:15:04.743Z,22.98
2018-12-27T04:17:06.451Z,25.32
2018-12-27T04:19:08.194Z,22.40
2018-12-27T04:21:09.912Z,22.30
2018-12-27T04:23:11.809Z,22.70
2018-12-27T04:25:13.962Z,22.17
2018-12-27T04:27:16.269Z,23.95
2018-12-27T04:29:17.985Z,22.73
2018-12-27T04:31:20.318Z,23.18
2018-12-27T04:33:22.432Z,22.10
2018-12-27T04:35:24.644Z,25.27
2018-12-27T04:37:26.459Z,24.20
2018-12-27T04:39:28.161Z,24.05
2018-12-27T04:41:30.085Z,22.87
2018-12-27T04:43:32.260Z,26.90
2018-12-27T04:45:33.978Z,22.75
2018-12-27T04:47:35.688Z,26.20
2018-12-27T04:49:37.418Z,21.75
2018-12-27T04:51:39.118Z,25.02
2018-12-27T04:53:40.842Z,23.50
2018-12-27T04:55:42.558Z,21.93
2018-12-27T04:57:44.277Z,26.85
2018-12-27T04:59:46.407Z,25.37
2018-12-27T05:01:48.170Z,23.90
2018-12-27T05:03:49.877Z,25.32
2018-12-27T05:05:51.589Z,24.37
2018-12-27T05:07:53.637Z,23.85
2018-12-27T05:09:55.346Z,26.02
2018-12-27T05:11:57.063Z,25.50
2018-12-27T05:13:58.778Z,23.92
2018-12-27T05:16:00.477Z,25.15
2018-12-27T05:18:05.017Z,25.77
2018-12-27T05:20:07.282Z,24.23
2018-12-27T05:22:09.060Z,25.20
2018-12-27T05:24:10.772Z,25.32
2018-12-27T05:26:12.984Z,25.50
2018-12-27T05:28:15.099Z,27.02
2018-12-27T05:30:16.786Z,26.50
2018-12-27T05:32:18.682Z,27.25
2018-12-27T05:34:26.244Z,25.20
2018-12-27T05:36:24.899Z,24.55
2018-12-27T05:38:26.973Z,25.15
2018-12-27T05:40:29.045Z,23.38
2018-12-27T05:42:31.062Z,27.85
2018-12-27T05:44:32.773Z,27.55
2018-12-27T05:46:34.502Z,24.72
2018-12-27T05:48:36.208Z,24.92
2018-12-27T05:50:40.265Z,26.65
2018-12-27T05:52:42.213Z,27.95
2018-12-27T05:54:43.910Z,23.18
2018-12-27T05:56:45.782Z,25.15
2018-12-27T05:58:47.835Z,25.88
2018-12-27T06:00:49.596Z,27.30
2018-12-27T06:02:51.299Z,24.07
2018-12-27T06:04:53.133Z,26.17
2018-12-27T06:06:54.837Z,24.15
2018-12-27T06:08:56.569Z,25.35
2018-12-27T06:10:58.413Z,22.90
2018-12-27T06:13:00.118Z,23.12
2018-12-27T06:15:01.921Z,23.52
2018-12-27T06:17:03.658Z,24.60
2018-12-27T06:19:05.358Z,25.40
2018-12-27T06:21:07.061Z,24.67
2018-12-27T06:23:08.798Z,23.30
2018-12-27T06:25:10.523Z,22.75
2018-12-27T06:27:12.241Z,23.40
2018-12-27T06:29:13.969Z,21.95
2018-12-27T06:31:15.678Z,19.82
2018-12-27T06:33:17.378Z,22.70
2018-12-27T06:35:19.358Z,20.10
2018-12-27T06:37:21.061Z,23.25
2018-12-27T06:39:22.793Z,22.37
2018-12-27T06:41:24.810Z,21.50
2018-12-27T06:43:26.526Z,20.88
2018-12-27T06:45:28.241Z,21.95
2018-12-27T06:47:29.962Z,20.50
2018-12-27T06:49:31.690Z,23.02
2018-12-27T06:51:33.394Z,23.45
2018-12-27T06:53:35.201Z,22.67
2018-12-27T06:55:37.014Z,21.20
2018-12-27T06:57:38.719Z,23.65
2018-12-27T06:59:40.459Z,22.37
2018-12-27T07:01:42.196Z,23.50
2018-12-27T07:03:43.904Z,20.23
2018-12-27T07:05:45.746Z,20.37
2018-12-27T07:07:47.453Z,21.50
2018-12-27T07:09:49.222Z,19.95
2018-12-27T07:11:51.086Z,22.15
2018-12-27T07:13:52.791Z,20.57
2018-12-27T07:15:54.511Z,23.50
2018-12-27T07:17:56.277Z,21.65
2018-12-27T07:19:58.025Z,22.65
2018-12-27T07:21:59.733Z,19.70
2018-12-27T07:24:01.588Z,21.95
2018-12-27T07:26:03.306Z,22.80
2018-12-27T07:28:05.011Z,21.48
2018-12-27T07:30:07.030Z,22.55
2018-12-27T07:32:08.741Z,19.25
2018-12-27T07:34:10.458Z,20.77
2018-12-27T07:36:12.273Z,22.80
2018-12-27T07:38:14.094Z,21.73
2018-12-27T07:40:15.797Z,22.70
2018-12-27T07:42:17.720Z,21.48
2018-12-27T07:44:19.527Z,22.27
2018-12-27T07:46:21.225Z,22.13
2018-12-27T07:48:22.953Z,21.23
2018-12-27T07:50:24.653Z,24.27
2018-12-27T07:52:26.360Z,22.02
2018-12-27T07:54:28.100Z,21.23
2018-12-27T07:56:29.813Z,22.73
2018-12-27T07:58:31.546Z,23.02
2018-12-27T08:00:33.270Z,23.47
2018-12-27T08:02:34.978Z,23.42
2018-12-27T08:04:36.682Z,26.10
2018-12-27T08:06:38.566Z,22.65
2018-12-27T08:08:40.257Z,24.85
2018-12-27T08:10:41.971Z,22.67
2018-12-27T08:12:43.854Z,26.02
2018-12-27T08:14:45.855Z,25.20
2018-12-27T08:16:49.350Z,24.85
2018-12-27T08:18:54.595Z,26.33
2018-12-27T08:20:59.969Z,24.87
2018-12-27T08:23:06.301Z,23.45
2018-12-27T08:25:12.064Z,25.37
2018-12-27T08:27:13.869Z,27.37
2018-12-27T08:29:15.591Z,24.50
2018-12-27T08:31:17.321Z,25.20
2018-12-27T08:33:19.312Z,26.40
2018-12-27T08:35:21.323Z,25.68
2018-12-27T08:37:23.308Z,27.73
2018-12-27T08:39:25.032Z,27.30
2018-12-27T08:41:26.734Z,23.15
2018-12-27T08:43:28.450Z,23.65
2018-12-27T08:45:30.153Z,24.60
2018-12-27T08:47:31.853Z,24.82
2018-12-27T08:49:33.561Z,27.58
2018-12-27T08:51:38.368Z,27.27
2018-12-27T08:53:40.085Z,28.35
2018-12-27T08:55:41.824Z,25.30
2018-12-27T08:57:43.525Z,29.55
2018-12-27T08:59:45.230Z,30.05
2018-12-27T09:01:46.957Z,29.23
2018-12-27T09:03:48.665Z,27.87
2018-12-27T09:05:50.363Z,30.10
2018-12-27T09:07:52.465Z,29.50
2018-12-27T09:09:54.167Z,27.55
2018-12-27T09:11:55.865Z,29.23
2018-12-27T09:13:57.607Z,29.82
2018-12-27T09:15:59.327Z,26.62
2018-12-27T09:18:01.035Z,27.82
2018-12-27T09:20:03.363Z,27.48
2018-12-27T09:22:05.065Z,30.02
2018-12-27T09:24:06.780Z,27.37
2018-12-27T09:26:08.538Z,28.00
2018-12-27T09:28:10.252Z,29.95
2018-12-27T09:30:12.041Z,30.00
2018-12-27T09:32:13.919Z,24.95
2018-12-27T09:34:15.653Z,29.10
2018-12-27T09:36:17.358Z,29.95
2018-12-27T09:38:19.088Z,31.02
2018-12-27T09:40:20.836Z,31.82
2018-12-27T09:42:22.910Z,32.48
2018-12-27T09:44:24.613Z,29.48
2018-12-27T09:46:26.301Z,28.02
2018-12-27T09:48:28.066Z,29.42
2018-12-27T09:50:29.777Z,31.65
2018-12-27T09:52:31.545Z,27.93
2018-12-27T09:54:33.257Z,30.48
2018-12-27T09:56:34.957Z,32.45
2018-12-27T09:58:36.669Z,30.02
2018-12-27T10:00:39.901Z,32.20
2018-12-27T10:02:41.793Z,30.88
2018-12-27T10:04:43.489Z,30.12
2018-12-27T10:06:45.314Z,33.00
2018-12-27T10:08:47.358Z,32.42
2018-12-27T10:10:49.064Z,32.75
2018-12-27T10:12:50.799Z,31.20
2018-12-27T10:14:52.501Z,35.98
2018-12-27T10:16:54.195Z,33.23
2018-12-27T10:18:56.154Z,30.88
2018-12-27T10:20:57.857Z,34.00
2018-12-27T10:22:59.554Z,33.38
2018-12-27T10:25:01.482Z,35.25
2018-12-27T10:27:04.154Z,33.88
2018-12-27T10:29:05.911Z,36.75
2018-12-27T10:31:08.002Z,34.98
2018-12-27T10:33:09.761Z,36.33
2018-12-27T10:35:11.545Z,36.03
2018-12-27T10:37:13.374Z,35.83
2018-12-27T10:39:15.155Z,37.45
2018-12-27T10:41:16.957Z,33.13
2018-12-27T10:43:19.562Z,35.90
2018-12-27T10:45:21.440Z,36.00
2018-12-27T10:47:23.287Z,37.25
2018-12-27T10:49:25.158Z,37.00
2018-12-27T10:51:27.111Z,35.50
2018-12-27T10:53:28.877Z,34.00
2018-12-27T10:55:30.883Z,37.83
2018-12-27T10:57:34.713Z,35.55
2018-12-27T10:59:36.462Z,33.05
2018-12-27T11:01:38.353Z,35.68
2018-12-27T11:03:40.326Z,39.67
2018-12-27T11:06:52.706Z,34.65
2018-12-27T11:09:07.075Z,31.65
2018-12-27T11:11:34.477Z,34.67
2018-12-27T11:13:36.357Z,37.78
2018-12-27T11:15:38.250Z,38.00
2018-12-27T11:17:40.010Z,33.53
2018-12-27T11:19:41.718Z,34.60
2018-12-27T11:22:25.481Z,35.80
2018-12-27T11:25:35.202Z,32.00
2018-12-27T11:27:37.289Z,32.85
2018-12-27T11:29:39.042Z,33.63
2018-12-27T11:31:41.054Z,33.05
2018-12-27T11:34:02.422Z,30.45
2018-12-27T11:36:23.789Z,35.25
2018-12-27T11:38:45.203Z,35.35
2018-12-27T11:41:06.606Z,35.58
2018-12-27T11:43:27.982Z,37.73
2018-12-27T11:45:49.370Z,33.30
2018-12-27T11:48:10.743Z,34.50
2018-12-27T11:50:32.135Z,34.78
2018-12-27T11:55:21.327Z,35.55
2018-12-27T11:57:42.706Z,32.13
2018-12-27T12:00:04.910Z,36.45
2018-12-27T12:02:31.105Z,37.70
2018-12-27T12:04:49.665Z,38.50
2018-12-27T12:07:11.153Z,34.60
2018-12-27T12:09:32.555Z,34.15
2018-12-27T12:11:53.924Z,33.75
2018-12-27T12:16:42.778Z,39.75
2018-12-27T12:19:04.138Z,37.53
2018-12-27T12:21:25.545Z,39.55
2018-12-27T12:23:46.897Z,40.12
2018-12-27T12:26:08.263Z,37.55
2018-12-27T12:28:29.653Z,40.08
2018-12-27T12:30:51.037Z,39.60
2018-12-27T12:33:12.408Z,37.40
2018-12-27T12:35:33.771Z,39.13
2018-12-27T12:37:55.219Z,36.28
2018-12-27T12:40:16.590Z,39.45
2018-12-27T12:42:38.066Z,42.10
2018-12-27T12:44:59.437Z,38.63
2018-12-27T12:47:20.821Z,38.02
2018-12-27T12:49:42.183Z,39.15
2018-12-27T12:52:03.541Z,41.40
2018-12-27T12:54:25.092Z,42.38
2018-12-27T12:56:46.446Z,41.08
2018-12-27T12:59:07.860Z,39.15
2018-12-27T13:01:29.245Z,41.20
2018-12-27T13:03:50.622Z,40.73
2018-12-27T13:06:17.951Z,39.92
2018-12-27T13:08:35.277Z,36.95
2018-12-27T13:10:56.635Z,38.67
2018-12-27T13:13:17.981Z,38.40
2018-12-27T13:15:19.709Z,39.45
2018-12-27T13:17:41.177Z,41.37
2018-12-27T13:20:02.737Z,38.83
2018-12-27T13:22:24.174Z,40.20
2018-12-27T13:24:45.565Z,38.17
2018-12-27T13:27:06.918Z,40.67
2018-12-27T13:29:28.293Z,39.10
2018-12-27T13:31:49.663Z,37.78
2018-12-27T13:34:11.021Z,37.23
2018-12-27T13:36:32.562Z,38.20
2018-12-27T13:38:53.904Z,43.63
2018-12-27T13:41:15.270Z,40.75
2018-12-27T13:43:36.663Z,33.83
2018-12-27T13:45:58.188Z,39.45
2018-12-27T13:48:19.678Z,37.63
2018-12-27T13:50:41.054Z,43.40
2018-12-27T13:53:02.538Z,34.25
2018-12-27T13:55:23.895Z,36.70
2018-12-27T13:57:45.281Z,38.70
2018-12-27T14:05:15.479Z,43.48
2018-12-27T14:07:36.835Z,40.88
2018-12-27T14:09:58.231Z,42.25
2018-12-27T14:12:19.598Z,41.23
2018-12-27T14:14:40.959Z,39.58
2018-12-27T14:16:53.137Z,39.10
2018-12-27T14:19:14.522Z,40.08
2018-12-27T14:21:35.877Z,39.18
2018-12-27T14:23:57.251Z,40.67
2018-12-27T14:26:18.614Z,35.85
2018-12-27T14:28:39.968Z,38.98
2018-12-27T14:31:01.399Z,39.55
2018-12-27T14:33:22.821Z,41.20
2018-12-27T14:35:44.177Z,39.58
2018-12-27T14:38:05.566Z,40.45
2018-12-27T14:40:26.929Z,38.25
2018-12-27T14:42:48.285Z,39.23
2018-12-27T14:45:09.895Z,40.03
2018-12-27T14:47:31.241Z,40.80
2018-12-27T14:49:52.602Z,41.35
2018-12-27T14:52:13.967Z,36.05
2018-12-27T14:54:35.329Z,36.65
2018-12-27T14:56:56.702Z,41.35
2018-12-27T14:59:18.065Z,37.33
2018-12-27T15:01:39.536Z,36.70
2018-12-27T15:04:00.902Z,38.05
2018-12-27T15:06:22.263Z,38.20
2018-12-27T15:08:43.622Z,42.35
2018-12-27T15:11:04.973Z,38.83
2018-12-27T15:13:26.358Z,38.67
2018-12-27T15:15:40.874Z,40.20
2018-12-27T15:17:53.393Z,40.63
2018-12-27T15:20:14.916Z,40.60
2018-12-27T15:22:36.525Z,38.25
2018-12-27T15:24:57.885Z,38.88
2018-12-27T15:27:19.263Z,38.25
2018-12-27T15:29:40.621Z,40.23
2018-12-27T15:32:02.214Z,39.65
2018-12-27T15:34:23.563Z,38.20
2018-12-27T15:36:44.905Z,36.30
2018-12-27T15:39:06.295Z,36.53
2018-12-27T15:41:27.651Z,40.88
2018-12-27T15:43:49.042Z,41.50
2018-12-27T15:46:10.403Z,40.23
2018-12-27T15:48:31.769Z,40.48
2018-12-27T15:50:53.117Z,41.65
2018-12-27T15:53:14.600Z,38.88
2018-12-27T15:55:35.957Z,40.55
2018-12-27T15:57:57.321Z,41.18
2018-12-27T16:00:18.921Z,36.70
2018-12-27T16:02:40.278Z,42.17
2018-12-27T16:05:01.634Z,37.80
2018-12-27T16:09:50.297Z,36.95
2018-12-27T16:12:11.694Z,38.65
2018-12-27T16:14:33.166Z,39.48
2018-12-27T16:16:54.541Z,41.02
2018-12-27T16:19:06.985Z,40.73
2018-12-27T16:21:28.703Z,41.00
2018-12-27T16:23:50.299Z,36.90
2018-12-27T16:26:11.671Z,41.95
2018-12-27T16:28:33.037Z,39.48
2018-12-27T16:30:54.433Z,39.88
2018-12-27T16:33:15.822Z,40.88
2018-12-27T16:35:37.178Z,39.53
2018-12-27T16:37:58.825Z,37.35
2018-12-27T16:40:20.290Z,39.30
2018-12-27T16:42:41.766Z,40.05
2018-12-27T16:45:03.251Z,36.83
2018-12-27T16:47:27.093Z,40.52
2018-12-27T16:49:48.493Z,38.42
2018-12-27T16:52:09.858Z,38.10
2018-12-27T16:54:31.217Z,52.13
2018-12-27T16:59:19.972Z,39.88
2018-12-27T17:01:41.397Z,39.78
2018-12-27T17:04:02.807Z,38.10
2018-12-27T17:06:24.177Z,42.23
2018-12-27T17:08:46.409Z,39.42
2018-12-27T17:11:09.323Z,41.00
2018-12-27T17:13:30.872Z,37.85
2018-12-27T17:15:52.321Z,36.35
2018-12-27T17:18:13.736Z,38.50
2018-12-27T17:20:28.242Z,40.00
2018-12-27T17:22:40.439Z,40.12
2018-12-27T17:27:49.587Z,38.38
2018-12-27T17:32:39.015Z,38.73
2018-12-27T17:35:00.401Z,37.28
2018-12-27T17:42:35.448Z,39.73
2018-12-27T17:44:56.801Z,40.78
2018-12-27T17:47:18.166Z,36.00
2018-12-27T17:49:39.786Z,43.50
2018-12-27T17:52:01.198Z,40.40
2018-12-27T17:54:22.574Z,41.30
2018-12-27T17:56:43.958Z,41.98
2018-12-27T17:59:05.325Z,40.88
2018-12-27T18:01:27.140Z,40.12
2018-12-27T18:06:16.262Z,44.13
2018-12-27T18:08:37.717Z,40.52
2018-12-27T18:10:59.140Z,42.25
2018-12-27T18:13:20.508Z,41.02
2018-12-27T18:15:41.869Z,40.48
2018-12-27T18:18:03.489Z,40.98
2018-12-27T18:20:24.841Z,40.43
2018-12-27T18:22:36.857Z,42.53
2018-12-27T18:34:16.785Z,38.98
2018-12-27T18:36:18.509Z,44.90
2018-12-27T18:38:38.622Z,42.33
2018-12-27T18:40:55.521Z,41.40
2018-12-27T18:43:24.593Z,40.83
2018-12-27T18:45:26.337Z,40.88
2018-12-27T18:47:35.611Z,45.15
2018-12-27T18:49:37.382Z,41.25
2018-12-27T18:51:39.789Z,40.58
2018-12-27T18:53:41.489Z,41.02
2018-12-27T18:55:43.199Z,43.17
2018-12-27T18:57:44.954Z,43.85
2018-12-27T18:59:47.743Z,42.05
2018-12-27T19:01:49.499Z,43.90
2018-12-27T19:03:51.243Z,43.25
2018-12-27T19:05:53.009Z,41.95
2018-12-27T19:07:54.790Z,45.05
2018-12-27T19:09:56.539Z,39.23
2018-12-27T19:12:35.119Z,39.95
2018-12-27T19:14:36.876Z,69.95
2018-12-27T19:16:38.611Z,51.60
2018-12-27T19:18:43.975Z,47.17
2018-12-27T19:20:50.634Z,45.58
2018-12-27T19:23:18.413Z,46.20
2018-12-27T19:25:20.262Z,43.40
2018-12-27T19:27:22.030Z,44.35
2018-12-27T19:29:23.886Z,43.08
2018-12-27T19:31:25.731Z,46.83
2018-12-27T19:33:27.989Z,41.58
2018-12-27T19:35:29.718Z,43.02
2018-12-27T19:37:31.574Z,46.77
2018-12-27T19:39:33.329Z,45.78
2018-12-27T19:41:35.095Z,48.13
2018-12-27T19:43:37.190Z,44.20
2018-12-27T19:45:39.102Z,46.63
2018-12-27T19:47:41.003Z,46.05
2018-12-27T19:49:42.734Z,44.85
2018-12-27T19:51:44.466Z,47.78
2018-12-27T19:53:46.445Z,47.20
2018-12-27T19:55:48.187Z,45.78
2018-12-27T19:57:49.935Z,45.55
2018-12-27T19:59:52.062Z,48.10
2018-12-27T20:01:53.806Z,46.98
2018-12-27T20:03:55.555Z,43.60
2018-12-27T20:05:57.436Z,47.88
2018-12-27T20:07:59.672Z,44.50
2018-12-27T20:10:01.955Z,45.60
2018-12-27T20:12:03.794Z,44.25
2018-12-27T20:14:05.673Z,48.75
2018-12-27T20:16:07.509Z,45.80
2018-12-27T20:18:11.717Z,49.63
2018-12-27T20:20:13.779Z,47.67
2018-12-27T20:22:15.627Z,46.73
2018-12-27T20:24:17.370Z,46.55
2018-12-27T20:26:19.109Z,53.10
2018-12-27T20:28:20.975Z,48.48
2018-12-27T20:30:23.233Z,47.43
2018-12-27T20:32:24.979Z,51.00
2018-12-27T20:34:28.354Z,48.33
2018-12-27T20:36:30.136Z,48.73
2018-12-27T20:38:31.870Z,46.77
2018-12-27T20:40:33.655Z,44.67
2018-12-27T20:42:35.377Z,46.55
2018-12-27T20:44:37.198Z,48.90
2018-12-27T20:46:39.078Z,46.15
2018-12-27T20:48:40.842Z,49.00
2018-12-27T20:50:42.830Z,49.70
2018-12-27T20:52:44.594Z,46.02
2018-12-27T20:54:46.452Z,50.23
2018-12-27T20:56:48.429Z,49.25
2018-12-27T20:58:50.153Z,45.12
2018-12-27T21:00:51.865Z,50.20
2018-12-27T21:02:53.935Z,45.38
2018-12-27T21:04:55.894Z,47.33
2018-12-27T21:06:57.641Z,50.58
2018-12-27T21:08:59.606Z,48.63
2018-12-27T21:11:01.377Z,49.83
2018-12-27T21:13:03.206Z,51.98
2018-12-27T21:15:05.173Z,51.70
2018-12-27T21:17:06.921Z,55.35
2018-12-27T21:19:08.702Z,48.48
2018-12-27T21:21:10.551Z,52.62
2018-12-27T21:23:12.385Z,63.63
2018-12-27T21:25:14.755Z,51.75
2018-12-27T21:27:18.255Z,50.03
2018-12-27T21:29:20.026Z,50.05
2018-12-27T21:31:21.774Z,49.30
2018-12-27T21:33:23.955Z,49.33
2018-12-27T21:35:25.821Z,47.70
2018-12-27T21:37:27.675Z,49.15
2018-12-27T21:39:29.442Z,52.73
2018-12-27T21:41:31.222Z,53.23
2018-12-27T21:43:33.105Z,52.17
2018-12-27T21:45:36.653Z,64.37
2018-12-27T21:47:38.528Z,49.45
2018-12-27T21:49:40.241Z,48.10
2018-12-27T21:51:42.378Z,50.92
2018-12-27T21:53:44.097Z,50.78
2018-12-27T21:55:45.841Z,50.33
2018-12-27T21:57:47.610Z,49.67
2018-12-27T21:59:49.368Z,50.60
2018-12-27T22:01:51.081Z,53.92
2018-12-27T22:03:52.848Z,53.60
2018-12-27T22:05:54.714Z,54.27
2018-12-27T22:07:56.546Z,51.90
2018-12-27T22:09:58.378Z,54.60
2018-12-27T22:12:00.087Z,50.33
2018-12-27T22:14:01.816Z,49.53
2018-12-27T22:16:07.687Z,51.98
2018-12-27T22:18:09.789Z,51.63
2018-12-27T22:20:11.597Z,49.30
2018-12-27T22:22:26.602Z,47.03
2018-12-27T22:24:28.376Z,47.35
2018-12-27T22:26:30.088Z,49.20
2018-12-27T22:28:31.887Z,51.13
2018-12-27T22:30:33.598Z,49.53
2018-12-27T22:32:36.119Z,48.02
2018-12-27T22:34:41.055Z,47.93
2018-12-27T22:36:43.070Z,49.73
2018-12-27T22:38:45.249Z,47.25
2018-12-27T22:40:47.820Z,47.30
2018-12-27T22:42:49.860Z,46.48
2018-12-27T22:45:02.521Z,46.33
2018-12-27T22:46:56.673Z,48.78
2018-12-27T22:48:59.009Z,49.90
2018-12-27T22:51:01.083Z,50.98
2018-12-27T22:53:03.374Z,46.45
2018-12-27T22:55:05.531Z,47.00
2018-12-27T22:57:09.184Z,47.80
2018-12-27T22:59:11.510Z,47.38
2018-12-27T23:01:15.173Z,49.08
2018-12-27T23:03:17.271Z,45.75
2018-12-27T23:05:19.179Z,47.60
2018-12-27T23:07:21.061Z,50.03
2018-12-27T23:09:22.826Z,49.73
2018-12-27T23:11:24.914Z,48.55
2018-12-27T23:13:26.659Z,50.67
2018-12-27T23:15:28.554Z,46.45
2018-12-27T23:17:30.565Z,47.78
2018-12-27T23:19:32.423Z,44.80
2018-12-27T23:21:34.343Z,46.60
2018-12-27T23:23:36.110Z,45.48
2018-12-27T23:25:37.856Z,46.15
2018-12-27T23:27:39.613Z,44.35
2018-12-27T23:29:41.433Z,45.67
2018-12-27T23:31:43.202Z,47.60
2018-12-27T23:33:45.054Z,43.30
2018-12-27T23:35:47.038Z,46.70
2018-12-27T23:37:48.743Z,49.65
2018-12-27T23:39:50.472Z,45.73
2018-12-27T23:41:52.301Z,41.60
2018-12-27T23:43:55.161Z,41.18
2018-12-27T23:45:57.070Z,44.08
2018-12-27T23:47:58.879Z,43.38
2018-12-27T23:50:00.650Z,39.58
2018-12-27T23:52:02.564Z,44.63
2018-12-27T23:54:04.479Z,41.75
2018-12-27T23:56:06.258Z,43.25
2018-12-27T23:58:08.041Z,46.30
